Time;durP1;ratioP1;P1;durP2;ratioP2;P2;SDS_P1;SDS_P2;PMS_P1;PMS_P2;Temp;Humidity;BMP_temperature;BMP_pressure;BME280_temperature;BME280_humidity;BME280_pressure;Samples;Min_cycle;Max_cycle;Signal;HPM_P1;HPM_P2
2021/07/31 00:01:13;;;;;;;19.77;10.88;;;;;;;;;;5015875;28;20026;-60
2021/07/31 00:03:39;;;;;;;18.75;11.02;;;;;;;;;;4996787;28;20102;-60
2021/07/31 00:06:06;;;;;;;16.52;9.85;;;;;;;;;;4996838;28;20023;-61
2021/07/31 00:08:31;;;;;;;16.33;9.68;;;;;;;;;;4997113;28;20026;-61
2021/07/31 00:11:00;;;;;;;25.60;11.32;;;;;;;;;;4997105;28;20439;-61
2021/07/31 00:13:27;;;;;;;21.65;11.38;;;;;;;;;;4997176;28;20030;-61
2021/07/31 00:15:53;;;;;;;17.17;10.73;;;;;;;;;;4996911;28;20088;-61
2021/07/31 00:18:19;;;;;;;18.17;10.20;;;;;;;;;;4996441;28;20384;-61
2021/07/31 00:20:45;;;;;;;19.35;11.07;;;;;;;;;;4996331;28;20022;-61
2021/07/31 00:23:12;;;;;;;19.52;10.65;;;;;;;;;;4996601;28;20022;-61
2021/07/31 00:25:38;;;;;;;18.25;11.35;;;;;;;;;;4998101;28;20021;-61
2021/07/31 00:28:05;;;;;;;19.20;10.52;;;;;;;;;;5015961;28;20026;-61
2021/07/31 00:30:30;;;;;;;16.92;10.13;;;;;;;;;;5015647;28;20030;-61
2021/07/31 00:32:56;;;;;;;17.52;10.63;;;;;;;;;;5015911;28;20387;-61
2021/07/31 00:35:22;;;;;;;15.40;10.65;;;;;;;;;;5015845;28;20030;-61
2021/07/31 00:37:49;;;;;;;14.88;10.18;;;;;;;;;;5015622;28;20022;-61
2021/07/31 00:40:15;;;;;;;17.08;11.15;;;;;;;;;;5015526;28;20084;-61
2021/07/31 00:42:42;;;;;;;15.00;9.73;;;;;;;;;;5015708;28;20045;-61
2021/07/31 00:45:09;;;;;;;18.40;10.00;;;;;;;;;;4997962;28;20478;-60
2021/07/31 00:47:35;;;;;;;15.43;10.75;;;;;;;;;;5015484;28;20393;-61
2021/07/31 00:50:01;;;;;;;21.52;10.45;;;;;;;;;;5015206;28;20471;-61
2021/07/31 00:52:26;;;;;;;19.25;11.43;;;;;;;;;;5015544;28;20022;-61
2021/07/31 00:54:55;;;;;;;17.10;10.73;;;;;;;;;;5014879;28;20124;-62
2021/07/31 00:57:21;;;;;;;17.37;10.47;;;;;;;;;;5015486;28;20434;-61
2021/07/31 00:59:49;;;;;;;18.42;11.00;;;;;;;;;;5015060;28;20251;-62
2021/07/31 01:02:14;;;;;;;18.25;11.43;;;;;;;;;;5015282;28;20045;-61
2021/07/31 01:04:40;;;;;;;16.50;9.55;;;;;;;;;;5015146;28;20060;-61
2021/07/31 01:07:06;;;;;;;14.43;10.30;;;;;;;;;;5014547;28;20068;-61
2021/07/31 01:09:32;;;;;;;23.42;11.35;;;;;;;;;;5014969;28;20022;-61
2021/07/31 01:11:58;;;;;;;15.93;10.50;;;;;;;;;;5014796;28;20072;-61
2021/07/31 01:14:25;;;;;;;15.85;10.23;;;;;;;;;;5014937;28;20026;-61
2021/07/31 01:16:51;;;;;;;24.95;11.20;;;;;;;;;;5015006;28;20057;-62
2021/07/31 01:19:17;;;;;;;17.13;10.88;;;;;;;;;;5014999;28;20021;-61
2021/07/31 01:21:44;;;;;;;16.88;10.82;;;;;;;;;;5014845;28;20030;-61
2021/07/31 01:24:10;;;;;;;26.30;12.07;;;;;;;;;;5014978;28;20024;-62
2021/07/31 01:26:38;;;;;;;17.75;10.27;;;;;;;;;;5014930;28;20053;-61
2021/07/31 01:29:06;;;;;;;20.52;11.73;;;;;;;;;;5014715;28;20032;-61
2021/07/31 01:31:33;;;;;;;17.38;11.25;;;;;;;;;;5014840;28;20149;-61
2021/07/31 01:33:59;;;;;;;23.98;10.93;;;;;;;;;;5014266;28;20018;-62
2021/07/31 01:36:24;;;;;;;15.55;11.48;;;;;;;;;;4993001;28;20507;-61
2021/07/31 01:38:51;;;;;;;19.48;11.55;;;;;;;;;;5010045;28;20025;-62
2021/07/31 01:41:18;;;;;;;17.98;11.32;;;;;;;;;;5014233;28;20013;-61
2021/07/31 01:43:44;;;;;;;21.25;10.98;;;;;;;;;;5014230;28;20105;-61
2021/07/31 01:46:10;;;;;;;17.05;11.07;;;;;;;;;;5014600;28;20560;-61
2021/07/31 01:48:36;;;;;;;22.77;11.85;;;;;;;;;;5014390;28;20030;-61
2021/07/31 01:51:02;;;;;;;18.90;10.75;;;;;;;;;;5014038;28;20487;-62
2021/07/31 01:53:29;;;;;;;18.98;11.20;;;;;;;;;;5014285;28;20049;-61
2021/07/31 01:55:55;;;;;;;17.42;10.80;;;;;;;;;;5013750;28;20053;-62
2021/07/31 01:58:21;;;;;;;32.33;12.75;;;;;;;;;;5014023;28;20387;-61
2021/07/31 02:00:47;;;;;;;18.42;11.52;;;;;;;;;;5014162;28;20014;-61
2021/07/31 02:03:13;;;;;;;21.45;11.60;;;;;;;;;;5014452;28;20010;-61
2021/07/31 02:05:39;;;;;;;16.98;10.82;;;;;;;;;;5014085;28;20475;-61
2021/07/31 02:08:05;;;;;;;20.15;11.35;;;;;;;;;;5014112;28;20033;-61
2021/07/31 02:10:31;;;;;;;22.60;12.20;;;;;;;;;;4996263;28;20026;-61
2021/07/31 02:12:57;;;;;;;21.88;11.48;;;;;;;;;;5014145;28;20030;-61
2021/07/31 02:15:23;;;;;;;22.45;11.30;;;;;;;;;;5014329;28;20030;-62
2021/07/31 02:17:49;;;;;;;17.95;10.93;;;;;;;;;;5013177;28;20018;-62
2021/07/31 02:20:15;;;;;;;20.58;10.82;;;;;;;;;;5014089;28;20387;-61
2021/07/31 02:22:41;;;;;;;21.45;11.75;;;;;;;;;;5013789;28;20052;-61
2021/07/31 02:25:07;;;;;;;16.20;10.95;;;;;;;;;;5013625;28;20045;-61
2021/07/31 02:27:33;;;;;;;22.00;13.23;;;;;;;;;;5013547;28;20021;-61
2021/07/31 02:29:59;;;;;;;25.33;12.23;;;;;;;;;;5013723;28;20482;-61
2021/07/31 02:32:24;;;;;;;21.90;12.70;;;;;;;;;;5013753;28;20014;-61
2021/07/31 02:34:50;;;;;;;23.42;12.07;;;;;;;;;;5013533;28;20025;-62
2021/07/31 02:37:16;;;;;;;28.30;14.02;;;;;;;;;;5013934;28;20352;-61
2021/07/31 02:39:42;;;;;;;25.95;13.68;;;;;;;;;;5013646;28;20030;-61
2021/07/31 02:42:08;;;;;;;21.33;12.20;;;;;;;;;;5013329;28;20497;-61
2021/07/31 02:44:36;;;;;;;24.00;14.50;;;;;;;;;;5013423;28;20029;-61
2021/07/31 02:47:02;;;;;;;31.60;13.50;;;;;;;;;;5013375;28;20371;-62
2021/07/31 02:49:28;;;;;;;23.42;13.57;;;;;;;;;;5013479;28;20026;-61
2021/07/31 02:51:54;;;;;;;30.23;14.65;;;;;;;;;;5013367;28;20041;-62
2021/07/31 02:54:20;;;;;;;22.80;13.25;;;;;;;;;;5010893;28;20030;-61
2021/07/31 02:56:46;;;;;;;30.08;14.30;;;;;;;;;;4993696;28;20032;-61
2021/07/31 02:59:12;;;;;;;24.25;13.45;;;;;;;;;;4993955;28;20069;-61
2021/07/31 03:01:37;;;;;;;19.55;12.05;;;;;;;;;;4993655;28;20027;-62
2021/07/31 03:04:03;;;;;;;24.48;11.88;;;;;;;;;;4993489;28;20434;-61
2021/07/31 03:06:29;;;;;;;25.27;13.77;;;;;;;;;;4993816;28;20483;-62
2021/07/31 03:08:55;;;;;;;26.45;11.48;;;;;;;;;;4993529;28;20384;-62
2021/07/31 03:11:22;;;;;;;18.05;12.57;;;;;;;;;;4993771;28;20026;-61
2021/07/31 03:13:48;;;;;;;19.30;12.02;;;;;;;;;;4993650;28;20114;-62
2021/07/31 03:16:13;;;;;;;17.10;12.02;;;;;;;;;;4993783;28;20167;-61
2021/07/31 03:18:39;;;;;;;22.10;11.43;;;;;;;;;;4993670;28;20034;-61
2021/07/31 03:21:04;;;;;;;25.40;12.00;;;;;;;;;;4993579;28;20109;-62
2021/07/31 03:23:30;;;;;;;25.80;12.13;;;;;;;;;;4993844;28;20527;-62
2021/07/31 03:25:57;;;;;;;17.23;11.65;;;;;;;;;;4993353;28;20018;-61
2021/07/31 03:28:22;;;;;;;20.75;11.55;;;;;;;;;;4993833;28;20506;-61
2021/07/31 03:30:48;;;;;;;14.75;10.52;;;;;;;;;;4996098;28;20031;-62
2021/07/31 03:33:16;;;;;;;17.50;9.85;;;;;;;;;;4997145;28;20102;-61
2021/07/31 03:35:43;;;;;;;15.63;10.40;;;;;;;;;;4997200;28;20072;-61
2021/07/31 03:38:09;;;;;;;14.43;10.10;;;;;;;;;;4996960;28;20021;-62
2021/07/31 03:40:35;;;;;;;13.02;9.65;;;;;;;;;;4997181;28;20025;-61
2021/07/31 03:43:01;;;;;;;13.98;10.68;;;;;;;;;;4996965;28;20470;-61
2021/07/31 03:45:27;;;;;;;14.98;10.02;;;;;;;;;;4996902;28;20475;-61
2021/07/31 03:47:53;;;;;;;15.40;10.93;;;;;;;;;;4996880;28;20026;-62
2021/07/31 03:50:19;;;;;;;13.25;9.27;;;;;;;;;;4997434;28;20547;-61
2021/07/31 03:52:45;;;;;;;22.50;11.45;;;;;;;;;;4996632;28;20101;-62
2021/07/31 03:55:11;;;;;;;14.70;9.80;;;;;;;;;;4996654;28;20050;-62
2021/07/31 03:57:37;;;;;;;18.77;10.43;;;;;;;;;;4996570;28;20430;-61
2021/07/31 04:00:04;;;;;;;17.38;9.70;;;;;;;;;;4996690;28;20023;-61
2021/07/31 04:02:30;;;;;;;18.83;10.45;;;;;;;;;;4996805;28;20365;-61
2021/07/31 04:04:56;;;;;;;17.67;10.77;;;;;;;;;;4996422;28;20025;-62
2021/07/31 04:07:22;;;;;;;16.85;10.40;;;;;;;;;;4996605;28;20022;-62
2021/07/31 04:09:49;;;;;;;16.17;10.60;;;;;;;;;;4996358;28;20025;-62
2021/07/31 04:12:15;;;;;;;16.50;11.10;;;;;;;;;;4996402;28;20026;-61
2021/07/31 04:14:41;;;;;;;17.08;9.23;;;;;;;;;;4996339;28;20022;-62
2021/07/31 04:17:07;;;;;;;13.15;9.45;;;;;;;;;;4994797;28;20022;-62
2021/07/31 04:19:33;;;;;;;16.00;10.70;;;;;;;;;;4996163;28;20027;-61
2021/07/31 04:21:59;;;;;;;20.40;10.63;;;;;;;;;;5007357;28;20034;-60
2021/07/31 04:24:25;;;;;;;18.42;10.32;;;;;;;;;;5017111;28;20535;-58
2021/07/31 04:26:52;;;;;;;21.05;11.00;;;;;;;;;;5008925;28;20072;-59
2021/07/31 04:29:18;;;;;;;13.15;9.70;;;;;;;;;;5002776;28;20034;-61
2021/07/31 04:31:44;;;;;;;10.25;8.07;;;;;;;;;;4996322;28;20033;-61
2021/07/31 04:34:11;;;;;;;15.85;10.07;;;;;;;;;;4996828;28;20025;-61
2021/07/31 04:36:36;;;;;;;14.00;9.30;;;;;;;;;;4996764;28;20018;-61
2021/07/31 04:39:03;;;;;;;16.50;9.85;;;;;;;;;;4996581;28;20103;-62
2021/07/31 04:41:28;;;;;;;17.35;9.43;;;;;;;;;;4995782;28;20025;-61
2021/07/31 04:43:54;;;;;;;22.25;10.50;;;;;;;;;;4996409;28;20014;-61
2021/07/31 04:46:20;;;;;;;18.65;9.88;;;;;;;;;;4996822;28;20064;-61
2021/07/31 04:48:46;;;;;;;19.40;11.10;;;;;;;;;;4996267;28;20113;-61
2021/07/31 04:51:12;;;;;;;26.15;14.00;;;;;;;;;;4995916;28;20475;-63
2021/07/31 04:53:39;;;;;;;25.45;15.68;;;;;;;;;;4995632;28;20022;-62
2021/07/31 04:56:05;;;;;;;34.35;14.93;;;;;;;;;;4995435;28;20126;-62
2021/07/31 04:58:31;;;;;;;21.67;13.25;;;;;;;;;;4995775;28;20487;-62
2021/07/31 05:01:00;;;;;;;19.60;13.23;;;;;;;;;;4995509;28;20018;-62
2021/07/31 05:03:26;;;;;;;27.25;13.98;;;;;;;;;;4995663;28;20098;-62
2021/07/31 05:05:53;;;;;;;24.25;14.02;;;;;;;;;;4995328;28;20369;-62
2021/07/31 05:08:18;;;;;;;24.40;13.65;;;;;;;;;;4995799;28;20510;-62
2021/07/31 05:10:45;;;;;;;25.27;13.07;;;;;;;;;;4995592;28;20054;-62
2021/07/31 05:13:11;;;;;;;23.88;12.52;;;;;;;;;;4994212;28;20403;-62
2021/07/31 05:15:38;;;;;;;17.45;10.48;;;;;;;;;;4995375;28;20081;-62
2021/07/31 05:18:04;;;;;;;16.40;9.80;;;;;;;;;;4994955;28;20061;-62
2021/07/31 05:20:30;;;;;;;30.60;11.73;;;;;;;;;;4995358;28;20018;-62
2021/07/31 05:22:55;;;;;;;34.97;12.85;;;;;;;;;;4995034;28;20069;-61
2021/07/31 05:25:21;;;;;;;22.55;11.10;;;;;;;;;;4995129;28;20121;-61
2021/07/31 05:27:47;;;;;;;22.27;10.07;;;;;;;;;;4994813;28;20506;-61
2021/07/31 05:30:12;;;;;;;17.42;10.43;;;;;;;;;;4994954;28;20142;-62
2021/07/31 05:32:37;;;;;;;19.73;10.00;;;;;;;;;;4994942;28;20135;-61
2021/07/31 05:35:03;;;;;;;27.80;11.00;;;;;;;;;;4994910;28;20018;-61
2021/07/31 05:49:33;;;;;;;14.57;9.23;;;;;;;;;;5090383;28;20367;-68
2021/07/31 05:51:58;;;;;;;11.68;9.07;;;;;;;;;;5090227;28;20060;-66
2021/07/31 05:54:24;;;;;;;13.23;9.82;;;;;;;;;;5089978;28;20372;-68
2021/07/31 05:56:50;;;;;;;13.63;9.27;;;;;;;;;;5090568;28;20103;-67
2021/07/31 05:59:19;;;;;;;15.50;9.32;;;;;;;;;;5090523;28;20032;-67
2021/07/31 06:01:44;;;;;;;16.67;10.27;;;;;;;;;;5090133;28;20070;-68
2021/07/31 06:04:10;;;;;;;15.88;9.98;;;;;;;;;;5089884;28;20541;-67
2021/07/31 06:06:35;;;;;;;12.85;10.10;;;;;;;;;;5090060;28;20028;-68
2021/07/31 06:09:01;;;;;;;14.93;9.50;;;;;;;;;;5089743;28;20390;-67
2021/07/31 06:11:27;;;;;;;16.33;9.77;;;;;;;;;;5090053;28;20066;-69
2021/07/31 06:13:54;;;;;;;9.98;8.90;;;;;;;;;;5089856;28;20031;-67
2021/07/31 06:16:19;;;;;;;14.25;9.50;;;;;;;;;;5092820;28;20016;-67
2021/07/31 06:18:45;;;;;;;13.48;9.10;;;;;;;;;;5089695;28;20138;-68
2021/07/31 06:21:14;;;;;;;13.20;9.00;;;;;;;;;;5089970;28;20013;-67
2021/07/31 06:23:39;;;;;;;15.77;10.35;;;;;;;;;;5089601;28;20082;-65
2021/07/31 06:26:07;;;;;;;15.05;10.30;;;;;;;;;;5089231;28;20021;-68
2021/07/31 06:28:33;;;;;;;13.57;9.50;;;;;;;;;;5089806;28;20118;-67
2021/07/31 06:30:58;;;;;;;16.00;10.48;;;;;;;;;;5089457;28;20035;-68
2021/07/31 06:33:25;;;;;;;17.92;8.82;;;;;;;;;;5089507;28;20016;-68
2021/07/31 06:35:51;;;;;;;13.70;8.55;;;;;;;;;;5089332;28;20016;-68
2021/07/31 06:38:17;;;;;;;9.90;7.70;;;;;;;;;;5088989;28;20035;-67
2021/07/31 06:40:43;;;;;;;11.88;7.45;;;;;;;;;;5089322;28;20047;-68
2021/07/31 06:43:08;;;;;;;11.15;7.28;;;;;;;;;;5089559;28;20081;-67
2021/07/31 06:45:35;;;;;;;8.90;7.28;;;;;;;;;;5089113;28;20428;-68
2021/07/31 06:48:01;;;;;;;9.75;6.30;;;;;;;;;;5096720;28;20050;-68
2021/07/31 06:50:27;;;;;;;10.43;6.68;;;;;;;;;;5096165;28;20012;-68
2021/07/31 06:52:53;;;;;;;11.15;6.40;;;;;;;;;;5095672;28;20024;-68
2021/07/31 06:55:19;;;;;;;12.38;6.65;;;;;;;;;;5096018;28;20012;-67
2021/07/31 06:57:45;;;;;;;7.82;6.10;;;;;;;;;;5096164;28;20020;-67
2021/07/31 07:00:12;;;;;;;8.55;5.95;;;;;;;;;;5095715;28;20491;-67
2021/07/31 07:02:38;;;;;;;6.95;5.60;;;;;;;;;;5095930;28;20020;-67
2021/07/31 07:05:05;;;;;;;10.95;6.53;;;;;;;;;;5077698;28;20115;-67
2021/07/31 07:07:31;;;;;;;9.20;6.00;;;;;;;;;;5095267;28;20016;-69
2021/07/31 07:09:57;;;;;;;7.97;5.40;;;;;;;;;;5095435;28;20016;-68
2021/07/31 07:12:23;;;;;;;5.75;5.13;;;;;;;;;;5095430;28;20115;-68
2021/07/31 07:14:48;;;;;;;6.68;5.32;;;;;;;;;;5095606;28;20020;-68
2021/07/31 07:17:14;;;;;;;6.70;5.22;;;;;;;;;;5095669;28;20114;-68
2021/07/31 07:19:40;;;;;;;7.80;6.00;;;;;;;;;;5097760;28;20053;-67
2021/07/31 07:22:06;;;;;;;14.82;6.03;;;;;;;;;;5094998;28;20012;-67
2021/07/31 07:24:35;;;;;;;7.18;5.78;;;;;;;;;;5095290;28;20030;-68
2021/07/31 07:27:00;;;;;;;;;;;;;;;;;;5095580;28;20016;-68
2021/07/31 07:29:26;;;;;;;8.83;5.83;;;;;;;;;;5094877;28;19904;-68
2021/07/31 07:31:52;;;;;;;6.93;5.53;;;;;;;;;;5077244;28;20022;-68
2021/07/31 07:34:18;;;;;;;7.28;4.85;;;;;;;;;;5095149;28;20384;-70
2021/07/31 07:36:44;;;;;;;9.50;6.35;;;;;;;;;;5094992;28;20379;-67
2021/07/31 07:39:10;;;;;;;7.63;5.57;;;;;;;;;;5095057;28;20021;-65
2021/07/31 07:41:36;;;;;;;6.47;5.28;;;;;;;;;;5094698;28;20040;-67
2021/07/31 07:44:02;;;;;;;9.40;5.85;;;;;;;;;;5094952;28;20431;-67
2021/07/31 07:46:27;;;;;;;5.97;5.03;;;;;;;;;;5094998;28;20024;-70
2021/07/31 07:48:53;;;;;;;7.32;5.25;;;;;;;;;;5094455;28;20127;-68
2021/07/31 07:51:20;;;;;;;9.05;5.97;;;;;;;;;;5094410;28;20019;-68
2021/07/31 07:53:46;;;;;;;8.27;5.00;;;;;;;;;;5077411;28;20432;-69
2021/07/31 07:56:11;;;;;;;7.63;5.80;;;;;;;;;;5095094;28;20023;-67
2021/07/31 07:58:38;;;;;;;8.40;5.93;;;;;;;;;;5094829;28;20385;-65
2021/07/31 08:01:10;;;;;;;8.48;6.53;;;;;;;;;;5093836;28;20536;-69
2021/07/31 08:03:36;;;;;;;9.98;6.15;;;;;;;;;;5095101;28;20018;-67
2021/07/31 08:06:03;;;;;;;7.35;5.40;;;;;;;;;;5096096;28;20022;-68
2021/07/31 08:08:29;;;;;;;9.18;6.30;;;;;;;;;;5096931;28;20027;-68
2021/07/31 08:10:54;;;;;;;10.38;6.88;;;;;;;;;;5099923;28;20095;-69
2021/07/31 08:13:21;;;;;;;12.23;5.82;;;;;;;;;;5108135;28;20028;-67
2021/07/31 08:15:47;;;;;;;10.93;6.57;;;;;;;;;;5108949;28;20016;-67
2021/07/31 08:18:13;;;;;;;10.95;5.75;;;;;;;;;;5100850;28;20020;-67
2021/07/31 08:20:39;;;;;;;9.20;6.65;;;;;;;;;;5094383;28;20110;-68
2021/07/31 08:23:05;;;;;;;7.82;5.78;;;;;;;;;;5094786;28;20586;-67
2021/07/31 08:25:31;;;;;;;13.30;6.22;;;;;;;;;;5094516;28;20470;-68
2021/07/31 08:27:57;;;;;;;7.35;6.15;;;;;;;;;;5094440;28;20039;-69
2021/07/31 08:30:22;;;;;;;7.75;6.55;;;;;;;;;;5094155;28;20491;-69
2021/07/31 08:32:49;;;;;;;7.78;6.00;;;;;;;;;;5094176;28;20013;-68
2021/07/31 08:35:15;;;;;;;8.32;6.00;;;;;;;;;;5094488;28;20009;-64
2021/07/31 08:37:41;;;;;;;7.90;5.82;;;;;;;;;;5096935;28;20024;-67
2021/07/31 08:40:08;;;;;;;12.35;6.22;;;;;;;;;;5093614;28;20016;-67
2021/07/31 08:42:35;;;;;;;8.30;6.65;;;;;;;;;;5094123;28;20031;-66
2021/07/31 08:45:02;;;;;;;10.55;6.00;;;;;;;;;;5093946;28;20447;-69
2021/07/31 08:47:29;;;;;;;6.10;5.40;;;;;;;;;;5075354;28;20130;-69
2021/07/31 08:49:54;;;;;;;9.88;6.45;;;;;;;;;;5093615;28;20048;-68
2021/07/31 08:52:20;;;;;;;8.77;6.43;;;;;;;;;;5093924;28;20483;-69
2021/07/31 08:54:46;;;;;;;8.93;6.22;;;;;;;;;;5093738;28;20012;-68
2021/07/31 08:57:12;;;;;;;12.98;6.00;;;;;;;;;;5093483;28;20533;-67
2021/07/31 08:59:39;;;;;;;6.20;5.20;;;;;;;;;;5093313;28;20027;-69
2021/07/31 09:02:04;;;;;;;10.63;5.93;;;;;;;;;;5093652;28;20065;-67
2021/07/31 09:04:30;;;;;;;7.95;5.68;;;;;;;;;;5093290;28;20020;-68
2021/07/31 09:06:56;;;;;;;11.27;5.68;;;;;;;;;;5075561;28;20468;-69
2021/07/31 09:09:28;;;;;;;13.13;5.93;;;;;;;;;;5093301;28;20487;-68
2021/07/31 09:11:54;;;;;;;7.93;5.28;;;;;;;;;;5092952;28;20084;-68
2021/07/31 09:14:20;;;;;;;11.27;5.40;;;;;;;;;;5071020;28;20094;-69
2021/07/31 09:16:46;;;;;;;9.32;5.20;;;;;;;;;;5089543;28;20059;-68
2021/07/31 09:19:13;;;;;;;6.35;4.80;;;;;;;;;;5093179;28;20047;-69
2021/07/31 09:21:42;;;;;;;6.97;5.10;;;;;;;;;;5093208;28;20023;-69
2021/07/31 09:24:16;;;;;;;8.38;4.88;;;;;;;;;;5093460;28;20016;-68
2021/07/31 09:26:48;;;;;;;6.68;5.18;;;;;;;;;;5093258;28;20098;-69
2021/07/31 09:29:14;;;;;;;7.10;5.00;;;;;;;;;;5093363;28;20486;-69
2021/07/31 09:31:53;;;;;;;6.35;5.07;;;;;;;;;;5093065;28;20109;-68
2021/07/31 09:34:37;;;;;;;6.63;5.10;;;;;;;;;;5093498;28;20027;-68
2021/07/31 09:37:10;;;;;;;6.47;4.93;;;;;;;;;;5092996;28;20027;-69
2021/07/31 09:39:49;;;;;;;6.50;4.00;;;;;;;;;;5092788;28;20021;-67
2021/07/31 09:42:29;;;;;;;8.13;4.30;;;;;;;;;;5070637;28;20021;-69
2021/07/31 09:44:55;;;;;;;6.72;4.50;;;;;;;;;;5090500;28;20020;-68
2021/07/31 09:47:20;;;;;;;5.90;4.38;;;;;;;;;;5092522;28;20491;-68
2021/07/31 09:49:46;;;;;;;6.30;4.32;;;;;;;;;;5092939;28;20017;-69
2021/07/31 09:52:19;;;;;;;5.45;4.88;;;;;;;;;;5092859;28;20514;-67
2021/07/31 09:54:46;;;;;;;7.82;4.57;;;;;;;;;;5092693;28;20375;-68
2021/07/31 09:57:12;;;;;;;5.85;4.22;;;;;;;;;;5092671;28;20085;-68
2021/07/31 09:59:43;;;;;;;5.80;4.50;;;;;;;;;;5092723;28;20012;-69
2021/07/31 10:02:09;;;;;;;5.75;4.25;;;;;;;;;;5092906;28;20015;-69
2021/07/31 10:04:35;;;;;;;8.65;4.65;;;;;;;;;;5092748;28;20115;-68
2021/07/31 10:07:02;;;;;;;7.47;4.10;;;;;;;;;;5092516;28;20047;-66
2021/07/31 10:09:28;;;;;;;6.50;4.15;;;;;;;;;;5092552;28;20027;-69
2021/07/31 10:11:54;;;;;;;12.50;4.70;;;;;;;;;;5092997;28;20043;-69
2021/07/31 10:14:22;;;;;;;4.88;4.13;;;;;;;;;;5092857;28;20069;-66
2021/07/31 10:16:48;;;;;;;7.10;4.10;;;;;;;;;;5092825;28;20016;-70
2021/07/31 10:19:15;;;;;;;10.13;5.00;;;;;;;;;;5092538;28;20077;-64
2021/07/31 10:21:48;;;;;;;5.55;4.50;;;;;;;;;;5092487;28;20016;-66
2021/07/31 10:24:14;;;;;;;6.63;4.60;;;;;;;;;;5094160;28;20468;-66
2021/07/31 10:27:00;;;;;;;7.68;4.18;;;;;;;;;;5096677;28;20032;-66
2021/07/31 10:29:32;;;;;;;7.05;4.80;;;;;;;;;;5073868;28;20017;-68
2021/07/31 10:32:18;;;;;;;4.55;4.10;;;;;;;;;;5089805;28;20058;-66
2021/07/31 10:34:48;;;;;;;7.30;4.68;;;;;;;;;;5074097;28;20104;-66
2021/07/31 10:37:34;;;;;;;6.22;4.65;;;;;;;;;;5090872;28;20062;-66
2021/07/31 10:40:04;;;;;;;8.55;4.15;;;;;;;;;;5096303;28;20024;-66
2021/07/31 10:42:39;;;;;;;7.85;4.70;;;;;;;;;;5096193;28;20016;-64
2021/07/31 10:45:17;;;;;;;5.35;4.85;;;;;;;;;;5096259;28;20013;-63
2021/07/31 10:47:44;;;;;;;6.27;4.47;;;;;;;;;;5095594;28;20044;-67
2021/07/31 10:50:34;;;;;;;7.18;4.97;;;;;;;;;;5096359;28;20024;-66
2021/07/31 10:53:05;;;;;;;7.60;4.97;;;;;;;;;;5096016;28;20012;-67
2021/07/31 10:55:43;;;;;;;5.90;4.55;;;;;;;;;;5095629;28;20488;-67
2021/07/31 10:58:13;;;;;;;8.82;4.38;;;;;;;;;;5097073;28;20032;-68
2021/07/31 11:00:58;;;;;;;4.90;4.20;;;;;;;;;;5098584;28;20017;-65
2021/07/31 11:03:32;;;;;;;6.20;4.90;;;;;;;;;;5095579;28;20020;-67
2021/07/31 11:06:01;;;;;;;5.55;4.72;;;;;;;;;;5095780;28;20016;-67
2021/07/31 11:08:30;;;;;;;7.50;4.80;;;;;;;;;;5095523;28;20062;-67
2021/07/31 11:10:57;;;;;;;10.68;4.63;;;;;;;;;;5095623;28;20019;-65
2021/07/31 11:13:30;;;;;;;10.65;4.90;;;;;;;;;;5077138;28;20453;-68
2021/07/31 11:16:13;;;;;;;8.38;5.22;;;;;;;;;;5095534;28;20066;-66
2021/07/31 11:18:44;;;;;;;10.18;5.18;;;;;;;;;;5095520;28;20024;-64
2021/07/31 11:21:17;;;;;;;6.10;4.43;;;;;;;;;;5095291;28;20016;-67
2021/07/31 11:23:49;;;;;;;9.27;4.60;;;;;;;;;;5077507;28;20452;-66
2021/07/31 11:26:34;;;;;;;8.57;4.55;;;;;;;;;;5095218;28;20028;-67
2021/07/31 11:29:00;;;;;;;8.65;5.53;;;;;;;;;;5095319;28;20123;-68
2021/07/31 11:31:26;;;;;;;7.63;5.00;;;;;;;;;;5094855;28;20089;-68
2021/07/31 11:34:05;;;;;;;7.45;5.10;;;;;;;;;;5094911;28;20043;-64
2021/07/31 11:36:39;;;;;;;7.03;5.15;;;;;;;;;;5076928;28;20020;-68
2021/07/31 11:39:06;;;;;;;9.50;6.05;;;;;;;;;;5094596;28;20035;-67
2021/07/31 11:41:37;;;;;;;8.95;6.25;;;;;;;;;;5094835;28;20012;-66
2021/07/31 11:44:02;;;;;;;7.93;6.30;;;;;;;;;;5094768;28;20031;-67
2021/07/31 11:46:37;;;;;;;10.32;6.07;;;;;;;;;;5095311;28;20008;-65
2021/07/31 11:49:05;;;;;;;8.02;5.97;;;;;;;;;;5072691;28;20064;-67
2021/07/31 11:51:31;;;;;;;10.30;5.90;;;;;;;;;;5068489;28;20012;-66
2021/07/31 11:54:05;;;;;;;8.23;5.53;;;;;;;;;;5073888;28;20020;-66
2021/07/31 11:56:32;;;;;;;6.82;5.03;;;;;;;;;;5074421;28;20032;-67
2021/07/31 11:58:58;;;;;;;7.15;5.03;;;;;;;;;;5074485;28;20086;-66
2021/07/31 12:01:24;;;;;;;5.07;4.47;;;;;;;;;;5074180;28;20108;-67
2021/07/31 12:03:51;;;;;;;6.53;4.13;;;;;;;;;;5074306;28;20487;-65
2021/07/31 12:06:35;;;;;;;4.38;3.78;;;;;;;;;;5073966;28;20051;-64
2021/07/31 12:09:06;;;;;;;5.57;3.65;;;;;;;;;;5073969;28;20017;-68
2021/07/31 12:11:39;;;;;;;3.80;3.40;;;;;;;;;;5074037;28;20020;-67
2021/07/31 12:14:24;;;;;;;5.80;3.38;;;;;;;;;;5072047;28;20107;-66
2021/07/31 12:16:50;;;;;;;5.60;3.33;;;;;;;;;;5073959;28;20016;-66
2021/07/31 12:19:16;;;;;;;5.15;4.07;;;;;;;;;;5074149;28;20024;-66
2021/07/31 12:21:43;;;;;;;4.15;3.38;;;;;;;;;;5073819;28;20020;-66
2021/07/31 12:24:17;;;;;;;4.35;3.20;;;;;;;;;;5074008;28;20027;-67
2021/07/31 12:26:52;;;;;;;4.55;3.35;;;;;;;;;;5073890;28;20025;-66
2021/07/31 12:29:37;;;;;;;4.50;3.42;;;;;;;;;;5073434;28;20025;-66
2021/07/31 12:32:21;;;;;;;4.53;3.35;;;;;;;;;;5073721;28;20013;-65
2021/07/31 12:34:47;;;;;;;7.22;3.47;;;;;;;;;;5074122;28;20044;-67
2021/07/31 12:37:12;;;;;;;4.07;3.40;;;;;;;;;;5078059;28;20025;-66
2021/07/31 12:39:38;;;;;;;4.47;3.50;;;;;;;;;;5078044;28;20138;-66
2021/07/31 12:42:05;;;;;;;6.95;3.70;;;;;;;;;;5077887;28;20021;-67
2021/07/31 12:44:31;;;;;;;3.97;3.30;;;;;;;;;;5094896;28;20017;-65
2021/07/31 12:47:00;;;;;;;6.50;3.63;;;;;;;;;;5094535;28;20004;-67
2021/07/31 12:49:26;;;;;;;5.30;3.80;;;;;;;;;;5104229;28;20075;-66
2021/07/31 12:51:51;;;;;;;5.15;3.38;;;;;;;;;;5094197;28;20027;-65
2021/07/31 12:54:17;;;;;;;5.18;3.38;;;;;;;;;;5093651;28;20373;-65
2021/07/31 12:56:43;;;;;;;3.78;3.25;;;;;;;;;;5093747;28;20508;-66
2021/07/31 12:59:09;;;;;;;3.90;3.20;;;;;;;;;;5093833;28;20502;-67
2021/07/31 13:01:35;;;;;;;3.58;3.00;;;;;;;;;;5093440;28;20022;-66
2021/07/31 13:04:01;;;;;;;3.15;2.80;;;;;;;;;;5093207;28;20095;-67
2021/07/31 13:06:26;;;;;;;4.75;3.05;;;;;;;;;;5093182;28;20073;-67
2021/07/31 13:08:51;;;;;;;5.25;3.30;;;;;;;;;;5093312;28;20024;-66
2021/07/31 13:11:17;;;;;;;7.47;3.72;;;;;;;;;;5093218;28;20081;-68
2021/07/31 13:13:43;;;;;;;3.47;2.90;;;;;;;;;;5093593;28;20024;-68
2021/07/31 13:16:08;;;;;;;3.90;2.53;;;;;;;;;;5093239;28;20016;-65
2021/07/31 13:18:34;;;;;;;4.38;2.92;;;;;;;;;;5093217;28;20020;-66
2021/07/31 13:21:00;;;;;;;3.28;2.38;;;;;;;;;;5093466;28;20056;-65
2021/07/31 13:23:25;;;;;;;3.78;3.20;;;;;;;;;;5093836;28;20547;-65
2021/07/31 13:25:51;;;;;;;3.70;2.80;;;;;;;;;;5095789;28;20061;-65
2021/07/31 13:28:17;;;;;;;2.63;2.40;;;;;;;;;;5092916;28;20381;-68
2021/07/31 13:30:43;;;;;;;3.88;2.88;;;;;;;;;;5092995;28;20016;-67
2021/07/31 13:33:08;;;;;;;4.85;2.85;;;;;;;;;;5093455;28;20055;-66
2021/07/31 13:35:36;;;;;;;3.33;2.60;;;;;;;;;;5093068;28;20427;-67
2021/07/31 13:38:02;;;;;;;5.13;3.03;;;;;;;;;;5092919;28;20012;-67
2021/07/31 13:40:35;;;;;;;5.18;2.92;;;;;;;;;;5092628;28;20020;-66
2021/07/31 13:43:02;;;;;;;4.03;2.90;;;;;;;;;;5093002;28;20024;-67
2021/07/31 13:45:28;;;;;;;4.88;2.67;;;;;;;;;;5093153;28;20054;-68
2021/07/31 13:47:54;;;;;;;5.43;2.55;;;;;;;;;;5092770;28;20036;-67
2021/07/31 13:50:20;;;;;;;3.05;2.60;;;;;;;;;;5092907;28;20020;-66
2021/07/31 13:52:46;;;;;;;3.67;2.72;;;;;;;;;;5092995;28;20554;-67
2021/07/31 13:55:12;;;;;;;5.05;2.80;;;;;;;;;;5092458;28;20385;-66
2021/07/31 13:57:40;;;;;;;2.85;2.53;;;;;;;;;;5092949;28;20024;-66
2021/07/31 14:00:06;;;;;;;3.45;2.33;;;;;;;;;;5095406;28;20379;-67
2021/07/31 14:02:31;;;;;;;4.93;3.00;;;;;;;;;;5097050;28;20024;-67
2021/07/31 14:04:57;;;;;;;4.88;3.05;;;;;;;;;;5096847;28;20361;-66
2021/07/31 14:07:24;;;;;;;4.47;2.80;;;;;;;;;;5096991;28;20106;-66
2021/07/31 14:09:51;;;;;;;2.83;2.58;;;;;;;;;;5096741;28;20453;-68
2021/07/31 14:12:17;;;;;;;3.50;3.20;;;;;;;;;;5096538;28;20020;-65
2021/07/31 14:14:43;;;;;;;3.10;2.80;;;;;;;;;;5096918;28;20454;-66
2021/07/31 14:17:08;;;;;;;4.25;2.65;;;;;;;;;;5096682;28;20039;-67
2021/07/31 14:19:34;;;;;;;2.90;2.67;;;;;;;;;;5096683;28;20024;-68
2021/07/31 14:22:01;;;;;;;4.85;2.90;;;;;;;;;;5096529;28;20093;-68
2021/07/31 14:24:27;;;;;;;4.28;2.40;;;;;;;;;;5096185;28;20005;-67
2021/07/31 14:26:53;;;;;;;4.53;2.50;;;;;;;;;;5096420;28;20024;-67
2021/07/31 14:29:19;;;;;;;2.65;2.35;;;;;;;;;;5096712;28;20507;-66
2021/07/31 14:31:46;;;;;;;3.63;2.47;;;;;;;;;;5061674;28;20451;-64
2021/07/31 14:34:12;;;;;;;3.50;2.35;;;;;;;;;;5096351;28;20008;-67
2021/07/31 14:36:38;;;;;;;3.50;2.55;;;;;;;;;;5096108;28;20062;-65
2021/07/31 14:39:04;;;;;;;2.75;2.40;;;;;;;;;;5095902;28;20500;-67
2021/07/31 14:41:30;;;;;;;3.47;2.72;;;;;;;;;;5096428;28;20031;-66
2021/07/31 14:43:57;;;;;;;5.57;2.70;;;;;;;;;;5096128;28;20043;-65